sensor_id;sensor_type;location;lat;lon;timestamp;temperature;humidity
20512;DHT22;10414;52.074;5.126;2023-07-09T00:02:13;25.20;99.90
20512;DHT22;10414;52.074;5.126;2023-07-09T00:04:40;25.20;99.90
20512;DHT22;10414;52.074;5.126;2023-07-09T00:07:18;25.30;99.90
20512;DHT22;10414;52.074;5.126;2023-07-09T00:09:46;25.30;99.90
20512;DHT22;10414;52.074;5.126;2023-07-09T00:12:17;25.10;99.90
20512;DHT22;10414;52.074;5.126;2023-07-09T00:14:44;25.10;99.90
20512;DHT22;10414;52.074;5.126;2023-07-09T00:17:16;25.20;99.90
20512;DHT22;10414;52.074;5.126;2023-07-09T00:19:45;25.10;99.90
20512;DHT22;10414;52.074;5.126;2023-07-09T00:22:15;24.80;99.90
20512;DHT22;10414;52.074;5.126;2023-07-09T00:24:50;24.60;99.90
20512;DHT22;10414;52.074;5.126;2023-07-09T00:27:18;24.40;99.90
20512;DHT22;10414;52.074;5.126;2023-07-09T00:29:45;24.60;99.90
20512;DHT22;10414;52.074;5.126;2023-07-09T00:32:13;24.50;99.90
20512;DHT22;10414;52.074;5.126;2023-07-09T00:34:41;24.30;99.90
20512;DHT22;10414;52.074;5.126;2023-07-09T00:37:14;23.90;99.90
20512;DHT22;10414;52.074;5.126;2023-07-09T00:39:41;23.70;99.90
20512;DHT22;10414;52.074;5.126;2023-07-09T00:42:19;23.70;99.90
20512;DHT22;10414;52.074;5.126;2023-07-09T00:44:50;24.00;99.90
20512;DHT22;10414;52.074;5.126;2023-07-09T00:47:31;24.30;99.90
20512;DHT22;10414;52.074;5.126;2023-07-09T00:50:08;24.60;99.90
20512;DHT22;10414;52.074;5.126;2023-07-09T00:52:41;24.70;99.90
20512;DHT22;10414;52.074;5.126;2023-07-09T00:55:14;24.80;99.90
20512;DHT22;10414;52.074;5.126;2023-07-09T00:57:45;24.70;99.90
20512;DHT22;10414;52.074;5.126;2023-07-09T01:00:22;24.30;99.90
20512;DHT22;10414;52.074;5.126;2023-07-09T01:02:50;24.30;99.90
20512;DHT22;10414;52.074;5.126;2023-07-09T01:05:19;24.10;99.90
20512;DHT22;10414;52.074;5.126;2023-07-09T01:07:47;24.00;99.90
20512;DHT22;10414;52.074;5.126;2023-07-09T01:10:15;24.50;99.90
20512;DHT22;10414;52.074;5.126;2023-07-09T01:12:46;24.60;99.90
20512;DHT22;10414;52.074;5.126;2023-07-09T01:15:14;24.60;99.90
20512;DHT22;10414;52.074;5.126;2023-07-09T01:17:43;24.60;99.90
20512;DHT22;10414;52.074;5.126;2023-07-09T01:20:16;24.70;99.90
20512;DHT22;10414;52.074;5.126;2023-07-09T01:22:48;24.70;99.90
20512;DHT22;10414;52.074;5.126;2023-07-09T01:25:16;24.70;99.90
20512;DHT22;10414;52.074;5.126;2023-07-09T01:27:46;24.70;99.90
20512;DHT22;10414;52.074;5.126;2023-07-09T01:30:15;24.70;99.90
20512;DHT22;10414;52.074;5.126;2023-07-09T01:32:43;24.70;99.90
20512;DHT22;10414;52.074;5.126;2023-07-09T01:35:13;24.70;99.90
20512;DHT22;10414;52.074;5.126;2023-07-09T01:37:41;24.60;99.90
20512;DHT22;10414;52.074;5.126;2023-07-09T01:40:12;24.60;99.90
20512;DHT22;10414;52.074;5.126;2023-07-09T01:42:39;24.50;99.90
20512;DHT22;10414;52.074;5.126;2023-07-09T01:45:08;24.50;99.90
20512;DHT22;10414;52.074;5.126;2023-07-09T01:47:36;24.40;99.90
20512;DHT22;10414;52.074;5.126;2023-07-09T01:50:03;24.10;99.90
20512;DHT22;10414;52.074;5.126;2023-07-09T01:52:31;23.90;99.90
20512;DHT22;10414;52.074;5.126;2023-07-09T01:54:59;23.90;99.90
20512;DHT22;10414;52.074;5.126;2023-07-09T01:57:30;23.70;99.90
20512;DHT22;10414;52.074;5.126;2023-07-09T02:00:02;23.80;99.90
20512;DHT22;10414;52.074;5.126;2023-07-09T02:02:34;23.90;99.90
20512;DHT22;10414;52.074;5.126;2023-07-09T02:05:01;23.80;99.90
20512;DHT22;10414;52.074;5.126;2023-07-09T02:07:29;23.70;99.90
20512;DHT22;10414;52.074;5.126;2023-07-09T02:09:56;23.50;99.90
20512;DHT22;10414;52.074;5.126;2023-07-09T02:12:26;23.30;99.90
20512;DHT22;10414;52.074;5.126;2023-07-09T02:14:54;22.90;99.90
20512;DHT22;10414;52.074;5.126;2023-07-09T02:17:21;22.60;99.90
20512;DHT22;10414;52.074;5.126;2023-07-09T02:19:48;22.40;99.90
20512;DHT22;10414;52.074;5.126;2023-07-09T02:22:15;22.30;99.90
20512;DHT22;10414;52.074;5.126;2023-07-09T02:24:48;22.20;99.90
20512;DHT22;10414;52.074;5.126;2023-07-09T02:27:16;22.40;99.90
20512;DHT22;10414;52.074;5.126;2023-07-09T02:29:43;22.60;99.90
20512;DHT22;10414;52.074;5.126;2023-07-09T02:32:16;23.00;99.90
20512;DHT22;10414;52.074;5.126;2023-07-09T02:34:43;23.20;99.90
20512;DHT22;10414;52.074;5.126;2023-07-09T02:37:15;23.20;99.90
20512;DHT22;10414;52.074;5.126;2023-07-09T02:39:46;23.40;99.90
20512;DHT22;10414;52.074;5.126;2023-07-09T02:42:14;23.60;99.90
20512;DHT22;10414;52.074;5.126;2023-07-09T02:44:42;23.40;99.90
20512;DHT22;10414;52.074;5.126;2023-07-09T02:47:09;23.10;99.90
20512;DHT22;10414;52.074;5.126;2023-07-09T02:49:38;23.10;99.90
20512;DHT22;10414;52.074;5.126;2023-07-09T02:52:05;23.30;99.90
20512;DHT22;10414;52.074;5.126;2023-07-09T02:54:33;23.30;99.90
20512;DHT22;10414;52.074;5.126;2023-07-09T02:57:00;23.50;99.90
20512;DHT22;10414;52.074;5.126;2023-07-09T02:59:27;23.60;99.90
20512;DHT22;10414;52.074;5.126;2023-07-09T03:01:55;23.60;99.90
20512;DHT22;10414;52.074;5.126;2023-07-09T03:04:25;23.40;99.90
20512;DHT22;10414;52.074;5.126;2023-07-09T03:06:53;23.60;99.90
20512;DHT22;10414;52.074;5.126;2023-07-09T03:09:20;23.60;99.90
20512;DHT22;10414;52.074;5.126;2023-07-09T03:11:47;23.70;99.90
20512;DHT22;10414;52.074;5.126;2023-07-09T03:14:14;23.60;99.90
20512;DHT22;10414;52.074;5.126;2023-07-09T03:16:41;23.50;99.90
20512;DHT22;10414;52.074;5.126;2023-07-09T03:19:11;23.30;99.90
20512;DHT22;10414;52.074;5.126;2023-07-09T03:21:39;23.40;99.90
20512;DHT22;10414;52.074;5.126;2023-07-09T03:24:10;23.40;99.90
20512;DHT22;10414;52.074;5.126;2023-07-09T03:26:37;23.50;99.90
20512;DHT22;10414;52.074;5.126;2023-07-09T03:29:03;23.60;99.90
20512;DHT22;10414;52.074;5.126;2023-07-09T03:31:30;23.60;99.90
20512;DHT22;10414;52.074;5.126;2023-07-09T03:34:00;23.60;99.90
20512;DHT22;10414;52.074;5.126;2023-07-09T03:36:27;23.70;99.90
20512;DHT22;10414;52.074;5.126;2023-07-09T03:38:54;23.60;99.90
20512;DHT22;10414;52.074;5.126;2023-07-09T03:41:22;23.60;99.90
20512;DHT22;10414;52.074;5.126;2023-07-09T03:43:49;23.70;99.90
20512;DHT22;10414;52.074;5.126;2023-07-09T03:46:20;23.60;99.90
20512;DHT22;10414;52.074;5.126;2023-07-09T03:48:47;23.70;99.90
20512;DHT22;10414;52.074;5.126;2023-07-09T03:51:15;23.80;99.90
20512;DHT22;10414;52.074;5.126;2023-07-09T03:53:43;23.80;99.90
20512;DHT22;10414;52.074;5.126;2023-07-09T03:56:10;23.80;99.90
20512;DHT22;10414;52.074;5.126;2023-07-09T03:58:38;23.90;99.90
20512;DHT22;10414;52.074;5.126;2023-07-09T04:01:05;24.00;99.90
20512;DHT22;10414;52.074;5.126;2023-07-09T04:03:32;24.10;99.90
20512;DHT22;10414;52.074;5.126;2023-07-09T04:05:58;24.30;99.90
20512;DHT22;10414;52.074;5.126;2023-07-09T04:08:26;24.30;99.90
20512;DHT22;10414;52.074;5.126;2023-07-09T04:10:53;24.40;99.90
20512;DHT22;10414;52.074;5.126;2023-07-09T04:13:21;24.50;99.90
20512;DHT22;10414;52.074;5.126;2023-07-09T04:15:49;24.60;99.90
20512;DHT22;10414;52.074;5.126;2023-07-09T04:18:17;24.50;99.90
20512;DHT22;10414;52.074;5.126;2023-07-09T04:20:48;24.20;99.90
20512;DHT22;10414;52.074;5.126;2023-07-09T04:23:16;24.50;99.90
20512;DHT22;10414;52.074;5.126;2023-07-09T04:25:43;24.60;99.90
20512;DHT22;10414;52.074;5.126;2023-07-09T04:28:09;24.70;99.90
20512;DHT22;10414;52.074;5.126;2023-07-09T04:30:36;24.80;99.90
20512;DHT22;10414;52.074;5.126;2023-07-09T04:33:05;25.00;99.90
20512;DHT22;10414;52.074;5.126;2023-07-09T04:35:32;25.20;99.90
20512;DHT22;10414;52.074;5.126;2023-07-09T04:37:59;25.10;99.90
20512;DHT22;10414;52.074;5.126;2023-07-09T04:40:25;25.30;99.90
20512;DHT22;10414;52.074;5.126;2023-07-09T04:42:52;25.00;99.90
20512;DHT22;10414;52.074;5.126;2023-07-09T04:45:20;25.00;99.90
20512;DHT22;10414;52.074;5.126;2023-07-09T04:47:50;24.60;99.90
20512;DHT22;10414;52.074;5.126;2023-07-09T04:50:19;24.80;99.90
20512;DHT22;10414;52.074;5.126;2023-07-09T04:52:46;25.10;99.90
20512;DHT22;10414;52.074;5.126;2023-07-09T04:55:13;25.50;99.90
20512;DHT22;10414;52.074;5.126;2023-07-09T04:57:40;26.20;99.90
20512;DHT22;10414;52.074;5.126;2023-07-09T05:00:10;26.80;99.90
20512;DHT22;10414;52.074;5.126;2023-07-09T05:02:37;27.10;99.90
20512;DHT22;10414;52.074;5.126;2023-07-09T05:05:05;27.50;99.90
20512;DHT22;10414;52.074;5.126;2023-07-09T05:07:33;28.00;99.90
20512;DHT22;10414;52.074;5.126;2023-07-09T05:10:02;28.50;99.90
20512;DHT22;10414;52.074;5.126;2023-07-09T05:12:29;29.30;99.90
20512;DHT22;10414;52.074;5.126;2023-07-09T05:14:59;29.90;99.90
20512;DHT22;10414;52.074;5.126;2023-07-09T05:17:25;29.50;99.90
20512;DHT22;10414;52.074;5.126;2023-07-09T05:19:52;29.20;99.90
20512;DHT22;10414;52.074;5.126;2023-07-09T05:22:19;30.10;99.90
20512;DHT22;10414;52.074;5.126;2023-07-09T05:24:47;30.70;99.90
20512;DHT22;10414;52.074;5.126;2023-07-09T05:27:14;31.50;99.90
20512;DHT22;10414;52.074;5.126;2023-07-09T05:29:41;32.50;99.90
20512;DHT22;10414;52.074;5.126;2023-07-09T05:32:08;33.00;99.90
20512;DHT22;10414;52.074;5.126;2023-07-09T05:34:34;33.20;99.20
20512;DHT22;10414;52.074;5.126;2023-07-09T05:37:01;32.90;99.60
20512;DHT22;10414;52.074;5.126;2023-07-09T05:39:30;32.50;99.60
20512;DHT22;10414;52.074;5.126;2023-07-09T05:41:59;31.80;99.90
20512;DHT22;10414;52.074;5.126;2023-07-09T05:44:25;32.20;99.90
20512;DHT22;10414;52.074;5.126;2023-07-09T05:46:52;32.40;99.60
20512;DHT22;10414;52.074;5.126;2023-07-09T05:49:19;33.10;99.30
20512;DHT22;10414;52.074;5.126;2023-07-09T05:51:46;33.20;98.70
20512;DHT22;10414;52.074;5.126;2023-07-09T05:54:15;33.20;98.60
20512;DHT22;10414;52.074;5.126;2023-07-09T05:56:44;33.40;98.30
20512;DHT22;10414;52.074;5.126;2023-07-09T05:59:20;34.10;98.40
20512;DHT22;10414;52.074;5.126;2023-07-09T06:01:46;34.40;97.20
20512;DHT22;10414;52.074;5.126;2023-07-09T06:04:13;33.60;97.90
20512;DHT22;10414;52.074;5.126;2023-07-09T06:06:43;32.60;98.80
20512;DHT22;10414;52.074;5.126;2023-07-09T06:09:11;33.40;98.40
20512;DHT22;10414;52.074;5.126;2023-07-09T06:11:38;34.40;97.10
20512;DHT22;10414;52.074;5.126;2023-07-09T06:14:06;33.90;97.30
20512;DHT22;10414;52.074;5.126;2023-07-09T06:16:35;33.40;98.00
20512;DHT22;10414;52.074;5.126;2023-07-09T06:19:02;34.50;97.40
20512;DHT22;10414;52.074;5.126;2023-07-09T06:21:29;35.60;96.50
20512;DHT22;10414;52.074;5.126;2023-07-09T06:24:01;35.30;96.40
20512;DHT22;10414;52.074;5.126;2023-07-09T06:26:28;35.80;95.90
20512;DHT22;10414;52.074;5.126;2023-07-09T06:28:54;36.10;95.30
20512;DHT22;10414;52.074;5.126;2023-07-09T06:31:24;35.50;95.40
20512;DHT22;10414;52.074;5.126;2023-07-09T06:33:52;36.00;95.20
20512;DHT22;10414;52.074;5.126;2023-07-09T06:36:19;37.20;94.30
20512;DHT22;10414;52.074;5.126;2023-07-09T06:38:46;37.80;93.50
20512;DHT22;10414;52.074;5.126;2023-07-09T06:41:14;39.30;92.40
20512;DHT22;10414;52.074;5.126;2023-07-09T06:43:41;40.10;91.10
20512;DHT22;10414;52.074;5.126;2023-07-09T06:46:10;40.40;90.60
20512;DHT22;10414;52.074;5.126;2023-07-09T06:48:38;37.40;91.80
20512;DHT22;10414;52.074;5.126;2023-07-09T06:51:06;36.30;93.00
20512;DHT22;10414;52.074;5.126;2023-07-09T06:53:33;37.00;92.80
20512;DHT22;10414;52.074;5.126;2023-07-09T06:55:59;38.60;92.00
20512;DHT22;10414;52.074;5.126;2023-07-09T06:58:30;39.20;91.00
20512;DHT22;10414;52.074;5.126;2023-07-09T07:01:01;39.80;90.50
20512;DHT22;10414;52.074;5.126;2023-07-09T07:03:29;41.20;88.70
20512;DHT22;10414;52.074;5.126;2023-07-09T07:05:56;39.90;88.80
20512;DHT22;10414;52.074;5.126;2023-07-09T07:08:25;39.80;89.50
20512;DHT22;10414;52.074;5.126;2023-07-09T07:10:56;39.80;89.80
20512;DHT22;10414;52.074;5.126;2023-07-09T07:13:27;40.50;87.30
20512;DHT22;10414;52.074;5.126;2023-07-09T07:15:54;41.30;87.00
20512;DHT22;10414;52.074;5.126;2023-07-09T07:18:21;42.00;85.20
20512;DHT22;10414;52.074;5.126;2023-07-09T07:20:52;41.70;84.70
20512;DHT22;10414;52.074;5.126;2023-07-09T07:23:21;42.40;83.20
20512;DHT22;10414;52.074;5.126;2023-07-09T07:25:50;42.20;82.50
20512;DHT22;10414;52.074;5.126;2023-07-09T07:28:17;42.90;81.40
20512;DHT22;10414;52.074;5.126;2023-07-09T07:30:44;42.10;81.10
20512;DHT22;10414;52.074;5.126;2023-07-09T07:33:14;43.90;79.40
20512;DHT22;10414;52.074;5.126;2023-07-09T07:35:41;44.90;77.60
20512;DHT22;10414;52.074;5.126;2023-07-09T07:38:08;45.90;76.00
20512;DHT22;10414;52.074;5.126;2023-07-09T07:40:35;46.70;74.00
20512;DHT22;10414;52.074;5.126;2023-07-09T07:43:03;46.40;73.00
20512;DHT22;10414;52.074;5.126;2023-07-09T07:45:30;47.10;71.80
20512;DHT22;10414;52.074;5.126;2023-07-09T07:47:57;48.00;69.90
20512;DHT22;10414;52.074;5.126;2023-07-09T07:50:23;48.00;68.50
20512;DHT22;10414;52.074;5.126;2023-07-09T07:52:53;48.20;68.30
20512;DHT22;10414;52.074;5.126;2023-07-09T07:55:21;47.50;67.70
20512;DHT22;10414;52.074;5.126;2023-07-09T07:57:48;46.30;67.50
20512;DHT22;10414;52.074;5.126;2023-07-09T08:00:17;46.10;68.00
20512;DHT22;10414;52.074;5.126;2023-07-09T08:02:44;44.80;69.00
20512;DHT22;10414;52.074;5.126;2023-07-09T08:05:11;43.60;71.70
20512;DHT22;10414;52.074;5.126;2023-07-09T08:07:38;43.30;72.50
20512;DHT22;10414;52.074;5.126;2023-07-09T08:10:06;43.10;73.30
20512;DHT22;10414;52.074;5.126;2023-07-09T08:12:39;42.30;74.10
20512;DHT22;10414;52.074;5.126;2023-07-09T08:15:07;42.30;73.80
20512;DHT22;10414;52.074;5.126;2023-07-09T08:17:35;41.80;74.70
20512;DHT22;10414;52.074;5.126;2023-07-09T08:20:05;41.00;75.30
20512;DHT22;10414;52.074;5.126;2023-07-09T08:22:33;41.40;75.20
20512;DHT22;10414;52.074;5.126;2023-07-09T08:25:00;42.50;73.10
20512;DHT22;10414;52.074;5.126;2023-07-09T08:27:27;41.50;73.30
20512;DHT22;10414;52.074;5.126;2023-07-09T08:29:54;41.20;73.80
20512;DHT22;10414;52.074;5.126;2023-07-09T08:32:24;40.80;74.20
20512;DHT22;10414;52.074;5.126;2023-07-09T08:34:52;40.30;75.80
20512;DHT22;10414;52.074;5.126;2023-07-09T08:37:19;41.40;74.90
20512;DHT22;10414;52.074;5.126;2023-07-09T08:39:46;41.40;74.60
20512;DHT22;10414;52.074;5.126;2023-07-09T08:42:16;40.20;74.80
20512;DHT22;10414;52.074;5.126;2023-07-09T08:44:59;40.00;76.00
20512;DHT22;10414;52.074;5.126;2023-07-09T08:47:33;40.10;75.80
20512;DHT22;10414;52.074;5.126;2023-07-09T08:50:12;41.30;74.50
20512;DHT22;10414;52.074;5.126;2023-07-09T08:52:45;41.40;74.60
20512;DHT22;10414;52.074;5.126;2023-07-09T08:55:16;40.70;75.60
20512;DHT22;10414;52.074;5.126;2023-07-09T08:57:48;40.90;75.70
20512;DHT22;10414;52.074;5.126;2023-07-09T09:00:19;41.20;75.50
20512;DHT22;10414;52.074;5.126;2023-07-09T09:02:52;40.00;76.60
20512;DHT22;10414;52.074;5.126;2023-07-09T09:05:24;39.20;77.60
20512;DHT22;10414;52.074;5.126;2023-07-09T09:07:56;39.00;78.30
20512;DHT22;10414;52.074;5.126;2023-07-09T09:13:13;38.20;80.00
20512;DHT22;10414;52.074;5.126;2023-07-09T09:15:42;38.20;80.20
20512;DHT22;10414;52.074;5.126;2023-07-09T09:18:20;37.00;81.40
20512;DHT22;10414;52.074;5.126;2023-07-09T09:20:54;36.90;82.60
20512;DHT22;10414;52.074;5.126;2023-07-09T09:23:27;37.20;82.40
20512;DHT22;10414;52.074;5.126;2023-07-09T09:25:58;38.00;81.90
20512;DHT22;10414;52.074;5.126;2023-07-09T09:28:27;37.50;82.00
20512;DHT22;10414;52.074;5.126;2023-07-09T09:30:54;36.60;84.10
20512;DHT22;10414;52.074;5.126;2023-07-09T09:33:21;36.90;84.10
20512;DHT22;10414;52.074;5.126;2023-07-09T09:35:49;37.40;84.10
20512;DHT22;10414;52.074;5.126;2023-07-09T09:38:21;37.70;83.80
20512;DHT22;10414;52.074;5.126;2023-07-09T09:40:48;38.00;83.40
20512;DHT22;10414;52.074;5.126;2023-07-09T09:43:17;37.90;83.60
20512;DHT22;10414;52.074;5.126;2023-07-09T09:45:48;37.90;83.50
20512;DHT22;10414;52.074;5.126;2023-07-09T09:48:18;37.70;84.30
20512;DHT22;10414;52.074;5.126;2023-07-09T09:50:46;37.20;85.50
20512;DHT22;10414;52.074;5.126;2023-07-09T09:53:19;36.70;85.50
20512;DHT22;10414;52.074;5.126;2023-07-09T09:55:47;36.00;86.80
20512;DHT22;10414;52.074;5.126;2023-07-09T09:58:16;35.50;88.30
20512;DHT22;10414;52.074;5.126;2023-07-09T10:00:50;35.40;88.90
20512;DHT22;10414;52.074;5.126;2023-07-09T10:03:19;35.70;88.90
20512;DHT22;10414;52.074;5.126;2023-07-09T10:05:51;36.10;87.80
20512;DHT22;10414;52.074;5.126;2023-07-09T10:08:38;36.00;87.70
20512;DHT22;10414;52.074;5.126;2023-07-09T10:11:18;36.10;88.40
20512;DHT22;10414;52.074;5.126;2023-07-09T10:13:46;35.80;87.80
20512;DHT22;10414;52.074;5.126;2023-07-09T10:16:24;36.00;88.20
20512;DHT22;10414;52.074;5.126;2023-07-09T10:19:04;37.20;86.20
20512;DHT22;10414;52.074;5.126;2023-07-09T10:21:41;37.80;85.40
20512;DHT22;10414;52.074;5.126;2023-07-09T10:24:23;37.50;85.70
20512;DHT22;10414;52.074;5.126;2023-07-09T10:26:58;37.40;85.60
20512;DHT22;10414;52.074;5.126;2023-07-09T10:30:00;37.30;86.10
20512;DHT22;10414;52.074;5.126;2023-07-09T10:32:39;37.20;86.00
20512;DHT22;10414;52.074;5.126;2023-07-09T10:35:12;36.70;86.80
20512;DHT22;10414;52.074;5.126;2023-07-09T10:38:04;36.20;86.10
20512;DHT22;10414;52.074;5.126;2023-07-09T10:40:36;36.40;86.40
20512;DHT22;10414;52.074;5.126;2023-07-09T10:43:06;36.50;85.60
20512;DHT22;10414;52.074;5.126;2023-07-09T10:45:42;36.10;86.90
20512;DHT22;10414;52.074;5.126;2023-07-09T10:48:14;36.60;86.80
20512;DHT22;10414;52.074;5.126;2023-07-09T10:50:48;37.70;85.90
20512;DHT22;10414;52.074;5.126;2023-07-09T10:53:29;37.10;82.60
20512;DHT22;10414;52.074;5.126;2023-07-09T10:56:04;35.90;84.80
20512;DHT22;10414;52.074;5.126;2023-07-09T10:58:35;35.20;85.80
20512;DHT22;10414;52.074;5.126;2023-07-09T11:01:05;34.50;88.20
20512;DHT22;10414;52.074;5.126;2023-07-09T11:03:38;35.40;87.00
20512;DHT22;10414;52.074;5.126;2023-07-09T11:06:16;35.40;87.00
20512;DHT22;10414;52.074;5.126;2023-07-09T11:08:49;35.40;87.70
20512;DHT22;10414;52.074;5.126;2023-07-09T11:11:25;35.80;86.60
20512;DHT22;10414;52.074;5.126;2023-07-09T11:13:57;36.60;84.40
20512;DHT22;10414;52.074;5.126;2023-07-09T11:16:29;36.60;84.00
20512;DHT22;10414;52.074;5.126;2023-07-09T11:19:00;36.40;85.20
20512;DHT22;10414;52.074;5.126;2023-07-09T11:21:27;36.50;86.00
20512;DHT22;10414;52.074;5.126;2023-07-09T11:23:56;36.40;85.50
20512;DHT22;10414;52.074;5.126;2023-07-09T11:26:30;35.90;86.40
20512;DHT22;10414;52.074;5.126;2023-07-09T11:29:13;36.00;86.10
20512;DHT22;10414;52.074;5.126;2023-07-09T11:31:42;35.90;86.30
20512;DHT22;10414;52.074;5.126;2023-07-09T11:34:17;35.80;87.30
20512;DHT22;10414;52.074;5.126;2023-07-09T11:36:52;35.90;87.40
20512;DHT22;10414;52.074;5.126;2023-07-09T11:39:26;35.60;87.70
20512;DHT22;10414;52.074;5.126;2023-07-09T11:41:56;35.90;87.90
20512;DHT22;10414;52.074;5.126;2023-07-09T11:44:25;36.30;86.80
20512;DHT22;10414;52.074;5.126;2023-07-09T11:47:17;36.30;87.60
20512;DHT22;10414;52.074;5.126;2023-07-09T11:49:50;35.40;88.70
20512;DHT22;10414;52.074;5.126;2023-07-09T11:52:24;35.10;89.40
20512;DHT22;10414;52.074;5.126;2023-07-09T11:54:52;35.40;89.80
20512;DHT22;10414;52.074;5.126;2023-07-09T11:57:21;35.50;88.90
20512;DHT22;10414;52.074;5.126;2023-07-09T11:59:47;34.90;89.50
20512;DHT22;10414;52.074;5.126;2023-07-09T12:02:17;34.90;89.40
20512;DHT22;10414;52.074;5.126;2023-07-09T12:04:47;34.70;89.90
20512;DHT22;10414;52.074;5.126;2023-07-09T12:07:15;34.10;90.20
20512;DHT22;10414;52.074;5.126;2023-07-09T12:09:47;33.90;90.00
20512;DHT22;10414;52.074;5.126;2023-07-09T12:12:18;33.70;89.40
20512;DHT22;10414;52.074;5.126;2023-07-09T12:14:47;33.60;89.30
20512;DHT22;10414;52.074;5.126;2023-07-09T12:17:14;33.20;89.90
20512;DHT22;10414;52.074;5.126;2023-07-09T12:19:41;33.10;89.80
20512;DHT22;10414;52.074;5.126;2023-07-09T12:22:21;33.30;89.40
20512;DHT22;10414;52.074;5.126;2023-07-09T12:24:50;33.20;89.80
20512;DHT22;10414;52.074;5.126;2023-07-09T12:27:22;33.30;88.80
20512;DHT22;10414;52.074;5.126;2023-07-09T12:29:53;33.20;87.90
20512;DHT22;10414;52.074;5.126;2023-07-09T12:32:20;32.70;89.30
20512;DHT22;10414;52.074;5.126;2023-07-09T12:34:53;32.60;90.10
20512;DHT22;10414;52.074;5.126;2023-07-09T12:37:24;32.40;90.20
20512;DHT22;10414;52.074;5.126;2023-07-09T12:40:00;32.70;90.30
20512;DHT22;10414;52.074;5.126;2023-07-09T12:42:32;32.50;90.20
20512;DHT22;10414;52.074;5.126;2023-07-09T12:45:00;32.70;90.30
20512;DHT22;10414;52.074;5.126;2023-07-09T12:47:27;32.10;91.30
20512;DHT22;10414;52.074;5.126;2023-07-09T12:50:01;32.20;91.70
20512;DHT22;10414;52.074;5.126;2023-07-09T12:52:28;32.40;91.40
20512;DHT22;10414;52.074;5.126;2023-07-09T12:54:56;32.50;91.50
20512;DHT22;10414;52.074;5.126;2023-07-09T12:57:24;32.60;91.10
20512;DHT22;10414;52.074;5.126;2023-07-09T12:59:54;32.50;91.30
20512;DHT22;10414;52.074;5.126;2023-07-09T13:02:27;32.90;91.20
20512;DHT22;10414;52.074;5.126;2023-07-09T13:05:02;32.60;91.30
20512;DHT22;10414;52.074;5.126;2023-07-09T13:07:32;32.70;90.70
20512;DHT22;10414;52.074;5.126;2023-07-09T13:10:14;32.80;90.40
20512;DHT22;10414;52.074;5.126;2023-07-09T13:12:45;33.10;90.40
20512;DHT22;10414;52.074;5.126;2023-07-09T13:15:38;33.40;90.00
20512;DHT22;10414;52.074;5.126;2023-07-09T13:18:13;33.10;90.60
20512;DHT22;10414;52.074;5.126;2023-07-09T13:20:42;32.80;91.10
20512;DHT22;10414;52.074;5.126;2023-07-09T13:23:10;32.30;91.60
20512;DHT22;10414;52.074;5.126;2023-07-09T13:25:38;31.60;92.00
20512;DHT22;10414;52.074;5.126;2023-07-09T13:28:11;31.20;92.70
20512;DHT22;10414;52.074;5.126;2023-07-09T13:30:44;30.70;93.40
20512;DHT22;10414;52.074;5.126;2023-07-09T13:33:12;30.10;95.20
20512;DHT22;10414;52.074;5.126;2023-07-09T13:35:39;29.50;97.10
20512;DHT22;10414;52.074;5.126;2023-07-09T13:38:12;29.10;98.50
20512;DHT22;10414;52.074;5.126;2023-07-09T13:40:39;28.80;99.50
20512;DHT22;10414;52.074;5.126;2023-07-09T13:43:10;28.60;99.90
20512;DHT22;10414;52.074;5.126;2023-07-09T13:45:39;28.30;99.90
20512;DHT22;10414;52.074;5.126;2023-07-09T13:48:15;27.80;99.90
20512;DHT22;10414;52.074;5.126;2023-07-09T13:50:43;27.40;99.90
20512;DHT22;10414;52.074;5.126;2023-07-09T13:53:14;27.10;99.90
20512;DHT22;10414;52.074;5.126;2023-07-09T13:55:42;27.10;99.90
20512;DHT22;10414;52.074;5.126;2023-07-09T13:58:09;26.80;99.90
20512;DHT22;10414;52.074;5.126;2023-07-09T14:00:37;26.40;99.90
20512;DHT22;10414;52.074;5.126;2023-07-09T14:03:10;26.50;99.90
20512;DHT22;10414;52.074;5.126;2023-07-09T14:05:40;26.30;99.90
20512;DHT22;10414;52.074;5.126;2023-07-09T14:08:08;26.20;99.90
20512;DHT22;10414;52.074;5.126;2023-07-09T14:10:38;26.20;99.90
20512;DHT22;10414;52.074;5.126;2023-07-09T14:13:05;26.30;99.90
20512;DHT22;10414;52.074;5.126;2023-07-09T14:15:34;26.20;99.90
20512;DHT22;10414;52.074;5.126;2023-07-09T14:18:01;25.90;99.90
20512;DHT22;10414;52.074;5.126;2023-07-09T14:20:28;25.90;99.90
20512;DHT22;10414;52.074;5.126;2023-07-09T14:22:56;25.80;99.90
20512;DHT22;10414;52.074;5.126;2023-07-09T14:25:25;25.80;99.90
20512;DHT22;10414;52.074;5.126;2023-07-09T14:27:53;25.60;99.90
20512;DHT22;10414;52.074;5.126;2023-07-09T14:30:24;25.50;99.90
20512;DHT22;10414;52.074;5.126;2023-07-09T14:32:54;25.30;99.90
20512;DHT22;10414;52.074;5.126;2023-07-09T14:35:23;25.00;99.90
20512;DHT22;10414;52.074;5.126;2023-07-09T14:37:51;24.90;99.90
20512;DHT22;10414;52.074;5.126;2023-07-09T14:40:21;25.00;99.90
20512;DHT22;10414;52.074;5.126;2023-07-09T14:42:49;24.80;99.90
20512;DHT22;10414;52.074;5.126;2023-07-09T14:45:19;24.30;99.90
20512;DHT22;10414;52.074;5.126;2023-07-09T14:47:46;23.40;99.90
20512;DHT22;10414;52.074;5.126;2023-07-09T14:50:13;22.70;99.90
20512;DHT22;10414;52.074;5.126;2023-07-09T14:52:42;22.30;99.90
20512;DHT22;10414;52.074;5.126;2023-07-09T14:55:14;22.20;99.90
20512;DHT22;10414;52.074;5.126;2023-07-09T14:57:43;22.30;99.90
20512;DHT22;10414;52.074;5.126;2023-07-09T15:00:14;22.50;99.90
20512;DHT22;10414;52.074;5.126;2023-07-09T15:02:43;22.80;99.90
20512;DHT22;10414;52.074;5.126;2023-07-09T15:05:18;23.30;99.90
20512;DHT22;10414;52.074;5.126;2023-07-09T15:07:46;23.60;99.90
20512;DHT22;10414;52.074;5.126;2023-07-09T15:10:14;24.00;99.90
20512;DHT22;10414;52.074;5.126;2023-07-09T15:12:43;24.30;99.90
20512;DHT22;10414;52.074;5.126;2023-07-09T15:15:19;24.80;99.90
20512;DHT22;10414;52.074;5.126;2023-07-09T15:17:46;25.00;99.90
20512;DHT22;10414;52.074;5.126;2023-07-09T15:20:14;24.80;99.90
20512;DHT22;10414;52.074;5.126;2023-07-09T15:22:42;24.90;99.90
20512;DHT22;10414;52.074;5.126;2023-07-09T15:25:13;24.90;99.90
20512;DHT22;10414;52.074;5.126;2023-07-09T15:27:40;25.00;99.90
20512;DHT22;10414;52.074;5.126;2023-07-09T15:30:13;24.90;99.90
20512;DHT22;10414;52.074;5.126;2023-07-09T15:32:41;24.50;99.90
20512;DHT22;10414;52.074;5.126;2023-07-09T15:35:08;24.20;99.90
20512;DHT22;10414;52.074;5.126;2023-07-09T15:37:35;24.10;99.90
20512;DHT22;10414;52.074;5.126;2023-07-09T15:40:02;24.30;99.90
20512;DHT22;10414;52.074;5.126;2023-07-09T15:42:30;24.00;99.90
20512;DHT22;10414;52.074;5.126;2023-07-09T15:44:57;23.90;99.90
20512;DHT22;10414;52.074;5.126;2023-07-09T15:47:26;24.10;99.90
20512;DHT22;10414;52.074;5.126;2023-07-09T15:49:55;24.20;99.90